Time;durP1;ratioP1;P1;durP2;ratioP2;P2;SDS_P1;SDS_P2;PMS_P1;PMS_P2;Temp;Humidity;BMP_temperature;BMP_pressure;BME280_temperature;BME280_humidity;BME280_pressure;Samples;Min_cycle;Max_cycle;Signal;HPM_P1;HPM_P2
2022/06/01 00:00:08;;;;;;;38.00;18.00;;;;;;;15.81;78.01;99904.16;5096100;28;20052;-69
2022/06/01 00:02:36;;;;;;;40.90;18.27;;;;;;;15.79;77.81;99906.53;5095961;28;20059;-67
2022/06/01 00:05:05;;;;;;;43.08;19.65;;;;;;;15.76;77.95;99904.44;5103428;28;20615;-68
2022/06/01 00:07:32;;;;;;;42.17;19.10;;;;;;;15.77;78.23;99903.28;5116384;28;20046;-68
2022/06/01 00:09:59;;;;;;;42.33;18.15;;;;;;;15.71;77.95;99907.50;5116409;28;20051;-69
2022/06/01 00:12:29;;;;;;;36.83;18.58;;;;;;;15.62;78.61;99904.03;5098100;28;20051;-68
2022/06/01 00:14:56;;;;;;;45.15;17.83;;;;;;;15.54;78.91;99907.81;5116166;28;20044;-69
2022/06/01 00:17:24;;;;;;;41.78;17.20;;;;;;;15.55;78.88;99915.06;5115686;28;20418;-69
2022/06/01 00:19:51;;;;;;;39.50;18.80;;;;;;;15.63;78.70;99904.88;5115883;28;20047;-68
2022/06/01 00:22:18;;;;;;;42.70;17.85;;;;;;;15.68;78.33;99911.03;5116098;28;20462;-68
2022/06/01 00:24:47;;;;;;;44.28;18.92;;;;;;;15.70;78.16;99900.28;5116097;28;20055;-74
2022/06/01 00:27:16;;;;;;;47.35;20.58;;;;;;;15.75;78.28;99902.81;5115499;28;20070;-68
2022/06/01 00:29:44;;;;;;;43.53;20.95;;;;;;;15.75;78.27;99902.00;5115825;28;20052;-68
2022/06/01 00:32:13;;;;;;;43.78;20.08;;;;;;;15.75;78.47;99907.63;5115737;28;20043;-70
2022/06/01 00:34:41;;;;;;;42.00;20.13;;;;;;;15.71;78.28;99904.69;5100046;28;20109;-69
2022/06/01 00:37:09;;;;;;;42.15;21.33;;;;;;;15.70;78.84;99911.50;5095072;28;20085;-69
2022/06/01 00:39:37;;;;;;;40.97;20.20;;;;;;;15.70;78.26;99914.31;5094928;28;20048;-68
2022/06/01 00:42:26;;;;;;;44.20;21.73;;;;;;;15.73;78.24;99919.19;5094801;28;20048;-68
2022/06/01 00:44:53;;;;;;;44.85;20.95;;;;;;;15.76;78.09;99921.28;5094747;28;20127;-69
2022/06/01 00:47:22;;;;;;;44.67;19.65;;;;;;;15.79;78.04;99919.75;5094947;28;20079;-69
2022/06/01 00:50:06;;;;;;;38.45;19.48;;;;;;;15.79;78.20;99920.56;5095185;28;20048;-68
2022/06/01 00:52:37;;;;;;;40.67;20.58;;;;;;;15.74;78.22;99923.63;5095470;28;20457;-68
2022/06/01 00:55:12;;;;;;;42.20;20.35;;;;;;;15.79;77.98;99928.97;5107944;28;20050;-69
2022/06/01 00:57:41;;;;;;;46.97;22.48;;;;;;;15.78;77.94;99927.34;5115134;28;20075;-72
2022/06/01 01:00:13;;;;;;;42.80;21.50;;;;;;;15.79;77.60;99926.19;5115319;28;20058;-74
2022/06/01 01:02:40;;;;;;;39.72;20.20;;;;;;;15.73;77.98;99930.41;5114391;28;20051;-69
2022/06/01 01:05:10;;;;;;;46.03;22.20;;;;;;;15.68;78.29;99930.66;5114772;28;20052;-69
2022/06/01 01:07:40;;;;;;;38.85;20.55;;;;;;;15.64;78.74;99929.75;5114816;28;20048;-69
2022/06/01 01:10:08;;;;;;;43.60;20.90;;;;;;;15.57;78.83;99918.31;5114968;28;20063;-74
2022/06/01 01:15:21;;;;;;;42.88;21.40;;;;;;;15.54;78.47;99921.81;5114674;28;20085;-69
2022/06/01 01:17:49;;;;;;;44.28;22.23;;;;;;;15.59;78.40;99927.19;5115019;28;20051;-74
2022/06/01 01:20:17;;;;;;;50.28;22.80;;;;;;;15.64;78.36;99935.38;5114673;28;20058;-68
2022/06/01 01:23:00;;;;;;;45.75;23.90;;;;;;;15.63;78.19;99930.91;5114755;28;20048;-70
2022/06/01 01:25:32;;;;;;;47.63;21.75;;;;;;;15.62;78.16;99937.69;5114252;28;20052;-68
2022/06/01 01:28:01;;;;;;;46.40;22.50;;;;;;;15.60;78.55;99934.41;5114416;28;20092;-70
2022/06/01 01:30:35;;;;;;;44.75;22.92;;;;;;;15.58;78.19;99936.78;5114419;28;20059;-68
2022/06/01 01:33:13;;;;;;;43.90;21.38;;;;;;;15.53;78.56;99934.22;5112338;28;20510;-74
2022/06/01 01:35:42;;;;;;;41.75;21.55;;;;;;;15.53;78.56;99934.22;5093972;28;20054;-74
2022/06/01 01:38:16;;;;;;;41.85;21.13;;;;;;;15.59;78.63;99934.78;5094029;28;20078;-72
2022/06/01 01:40:43;;;;;;;48.45;23.27;;;;;;;15.59;78.24;99938.41;5093968;28;20048;-70
2022/06/01 01:43:11;;;;;;;43.70;21.60;;;;;;;15.60;78.47;99942.84;5093942;28;20062;-68
2022/06/01 01:45:38;;;;;;;43.70;22.70;;;;;;;15.61;78.39;99943.66;5093632;28;20079;-69
2022/06/01 01:48:06;;;;;;;49.17;24.00;;;;;;;15.65;78.25;99948.19;5093905;28;20469;-72
2022/06/01 01:50:33;;;;;;;52.50;24.15;;;;;;;15.69;78.09;99937.88;5093685;28;20127;-70
2022/06/01 01:53:00;;;;;;;42.90;21.67;;;;;;;15.74;78.33;99948.03;5093748;28;20529;-74
2022/06/01 01:55:39;;;;;;;47.30;24.13;;;;;;;15.73;78.04;99938.00;5093314;28;20040;-69
2022/06/01 01:58:34;;;;;;;48.35;23.50;;;;;;;15.68;78.47;99938.25;5093689;28;20495;-69
2022/06/01 02:01:11;;;;;;;48.70;24.15;;;;;;;15.67;78.71;99929.03;5093314;28;20130;-72
2022/06/01 02:03:46;;;;;;;47.80;24.10;;;;;;;15.73;78.11;99943.63;5093443;28;20457;-70
2022/06/01 02:06:28;;;;;;;49.85;23.70;;;;;;;15.77;78.28;99945.34;5093298;28;20054;-74
2022/06/01 02:08:59;;;;;;;47.97;24.83;;;;;;;15.79;78.03;99940.19;5092767;28;20052;-69
2022/06/01 02:14:25;;;;;;;57.45;25.90;;;;;;;15.95;77.48;99941.06;5093068;28;20044;-69
2022/06/01 02:16:58;;;;;;;47.10;24.52;;;;;;;15.99;77.55;99936.34;5093306;28;20082;-68
2022/06/01 02:19:31;;;;;;;44.00;24.40;;;;;;;16.04;77.37;99940.88;5093281;28;20052;-72
2022/06/01 02:21:59;;;;;;;46.67;23.73;;;;;;;16.08;77.26;99934.19;5093141;28;20051;-69
2022/06/01 02:24:26;;;;;;;41.75;21.70;;;;;;;16.11;77.46;99939.06;5112715;28;20459;-68
2022/06/01 02:26:55;;;;;;;43.95;23.48;;;;;;;16.16;77.41;99936.03;5113247;28;20047;-69
2022/06/01 02:29:36;;;;;;;49.22;23.98;;;;;;;16.25;77.00;99945.09;5113427;28;20134;-69
2022/06/01 02:32:05;;;;;;;44.95;23.42;;;;;;;16.26;76.95;99941.09;5113131;28;20054;-74
2022/06/01 02:34:33;;;;;;;37.00;20.90;;;;;;;16.25;76.99;99945.09;5098929;28;20042;-70
2022/06/01 02:37:04;;;;;;;44.42;22.65;;;;;;;16.15;77.43;99942.81;5092817;28;20414;-72
2022/06/01 02:39:33;;;;;;;42.15;22.40;;;;;;;16.09;77.45;99941.44;5092867;28;20052;-73
2022/06/01 02:42:26;;;;;;;43.65;23.30;;;;;;;16.09;77.31;99947.06;5092647;28;20071;-68
2022/06/01 02:44:56;;;;;;;41.85;22.88;;;;;;;16.08;77.26;99939.78;5092718;28;20561;-70
2022/06/01 02:47:24;;;;;;;46.38;22.17;;;;;;;16.03;77.61;99942.88;5092952;28;20138;-75
2022/06/01 02:49:51;;;;;;;43.58;22.98;;;;;;;16.05;77.70;99948.13;5092917;28;20071;-67
2022/06/01 02:52:19;;;;;;;46.30;23.65;;;;;;;16.14;77.31;99941.16;5093194;28;20364;-68
2022/06/01 02:54:46;;;;;;;56.38;24.83;;;;;;;16.26;76.84;99949.50;5092978;28;20040;-68
2022/06/01 02:57:14;;;;;;;43.85;23.08;;;;;;;16.34;76.58;99942.91;5101885;28;20398;-68
2022/06/01 02:59:42;;;;;;;46.78;22.55;;;;;;;16.35;76.96;99949.34;5113431;28;20467;-67
2022/06/01 03:02:09;;;;;;;44.03;23.95;;;;;;;16.38;76.58;99938.19;5112863;28;20558;-68
2022/06/01 03:04:39;;;;;;;39.58;22.05;;;;;;;16.47;76.40;99935.25;5095519;28;20044;-69
2022/06/01 03:07:06;;;;;;;45.65;23.20;;;;;;;16.51;76.47;99935.34;5113094;28;20048;-72
2022/06/01 03:09:35;;;;;;;50.60;25.95;;;;;;;16.61;76.16;99944.03;5113231;28;20039;-68
2022/06/01 03:12:04;;;;;;;43.20;23.08;;;;;;;16.70;75.93;99943.88;5112837;28;20126;-69
2022/06/01 03:14:32;;;;;;;45.72;23.83;;;;;;;16.82;75.65;99946.56;5113028;28;20040;-69
2022/06/01 03:16:59;;;;;;;50.85;26.30;;;;;;;16.89;75.18;99938.31;5094426;28;20529;-68
2022/06/01 03:19:26;;;;;;;45.58;25.80;;;;;;;16.87;75.31;99943.50;5112989;28;20052;-70
2022/06/01 03:21:53;;;;;;;54.40;27.20;;;;;;;17.03;74.87;99952.72;5112918;28;20075;-70
2022/06/01 03:24:20;;;;;;;52.55;26.15;;;;;;;17.15;74.50;99947.78;5112979;28;20071;-75
2022/06/01 03:26:47;;;;;;;48.08;25.08;;;;;;;17.23;74.29;99957.19;5114448;28;20423;-71
2022/06/01 03:29:21;;;;;;;51.55;27.23;;;;;;;17.29;74.35;99950.13;5116982;28;20076;-70
2022/06/01 03:31:48;;;;;;;48.65;25.92;;;;;;;17.38;73.84;99950.72;5116541;28;20043;-68
2022/06/01 03:34:15;;;;;;;47.25;25.67;;;;;;;17.51;73.31;99940.97;5086084;28;20591;-70
2022/06/01 03:36:42;;;;;;;48.22;27.05;;;;;;;17.56;72.99;99949.13;5096061;28;20129;-69
2022/06/01 03:39:09;;;;;;;48.03;26.38;;;;;;;17.60;72.74;99938.75;5096341;28;20056;-74
2022/06/01 03:41:36;;;;;;;46.08;26.88;;;;;;;17.71;72.40;99942.63;5096043;28;20048;-70
2022/06/01 03:46:52;;;;;;;46.33;27.02;;;;;;;18.03;71.39;99946.91;5096132;28;20060;-70
2022/06/01 03:49:19;;;;;;;42.75;25.00;;;;;;;18.07;71.09;99947.78;5096403;28;20554;-71
2022/06/01 03:51:47;;;;;;;42.70;25.60;;;;;;;18.13;71.11;99944.31;5095867;28;20473;-70
2022/06/01 03:54:15;;;;;;;44.78;26.25;;;;;;;18.18;70.92;99941.16;5095959;28;20421;-70
2022/06/01 03:56:43;;;;;;;44.95;26.75;;;;;;;18.20;70.61;99943.59;5078079;28;20079;-69
2022/06/01 03:59:10;;;;;;;43.83;26.70;;;;;;;18.28;70.46;99953.81;5095903;28;20078;-69
2022/06/01 04:01:36;;;;;;;41.08;25.77;;;;;;;18.20;70.55;99944.44;5103863;28;20059;-69
2022/06/01 04:04:04;;;;;;;45.08;26.45;;;;;;;18.04;70.56;99946.53;5116000;28;20052;-73
2022/06/01 04:06:31;;;;;;;46.47;26.40;;;;;;;18.03;70.57;99933.63;5116080;28;20508;-70
2022/06/01 04:08:58;;;;;;;42.95;26.05;;;;;;;17.99;70.54;99934.75;5116414;28;20132;-70
2022/06/01 04:11:25;;;;;;;46.38;28.45;;;;;;;18.02;70.56;99939.63;5116089;28;20054;-68
2022/06/01 04:13:52;;;;;;;42.78;25.63;;;;;;;18.05;70.15;99934.06;5115785;28;20419;-70
2022/06/01 04:16:19;;;;;;;41.47;26.27;;;;;;;18.05;69.99;99933.25;5116174;28;20071;-71
2022/06/01 04:18:46;;;;;;;39.40;24.65;;;;;;;18.12;69.74;99933.41;5115745;28;20040;-70
2022/06/01 04:21:21;;;;;;;44.63;25.23;;;;;;;18.26;69.43;99939.28;5115561;28;20047;-74
2022/06/01 04:23:49;;;;;;;35.78;23.48;;;;;;;18.32;69.26;99937.00;5115871;28;20396;-69
2022/06/01 04:26:16;;;;;;;39.00;24.42;;;;;;;18.39;69.23;99943.59;5115806;28;20130;-69
2022/06/01 04:28:44;;;;;;;39.22;24.63;;;;;;;18.66;68.41;99941.66;5116055;28;20047;-69
2022/06/01 04:31:11;;;;;;;39.60;23.50;;;;;;;18.79;68.14;99946.72;5115653;28;20427;-69
2022/06/01 04:33:41;;;;;;;32.55;21.92;;;;;;;18.79;68.03;99941.06;5108848;28;20089;-74
2022/06/01 04:36:08;;;;;;;31.27;20.65;;;;;;;19.12;67.27;99955.28;5094957;28;20411;-70
2022/06/01 04:38:34;;;;;;;31.02;19.83;;;;;;;19.57;65.95;99945.91;5095183;28;20062;-70
2022/06/01 04:41:02;;;;;;;30.10;20.42;;;;;;;19.82;65.12;99949.88;5094938;28;20064;-69
2022/06/01 04:43:29;;;;;;;32.83;20.63;;;;;;;20.13;64.47;99943.81;5094850;28;20056;-70
2022/06/01 04:45:56;;;;;;;32.83;19.85;;;;;;;20.45;63.62;99949.78;5094481;28;20131;-69
2022/06/01 04:48:24;;;;;;;29.55;19.08;;;;;;;20.68;62.76;99944.75;5094970;28;20051;-69
2022/06/01 04:50:53;;;;;;;30.77;19.15;;;;;;;20.73;62.58;99947.25;5094614;28;20080;-69
2022/06/01 04:53:20;;;;;;;28.02;18.67;;;;;;;20.87;61.63;99953.03;5076516;28;20052;-69
2022/06/01 04:55:48;;;;;;;33.85;18.55;;;;;;;21.19;60.75;99954.09;5094596;28;20044;-68
2022/06/01 04:58:15;;;;;;;30.10;17.08;;;;;;;21.55;59.84;99953.13;5108871;28;20045;-69
2022/06/01 05:00:43;;;;;;;29.02;17.83;;;;;;;21.40;59.73;99951.41;5114970;28;20066;-68
2022/06/01 05:03:12;;;;;;;31.50;18.13;;;;;;;21.47;59.52;99949.44;5115014;28;20044;-69
2022/06/01 05:05:40;;;;;;;23.85;16.40;;;;;;;21.39;59.43;99950.63;5114941;28;20050;-68
2022/06/01 05:08:11;;;;;;;25.58;15.93;;;;;;;21.28;59.47;99941.22;5114944;28;20575;-75
2022/06/01 05:10:39;;;;;;;25.33;14.90;;;;;;;21.12;59.79;99945.56;5096934;28;20172;-73
2022/06/01 05:13:07;;;;;;;25.73;16.98;;;;;;;20.97;59.80;99950.31;5114819;28;20410;-68
2022/06/01 05:15:36;;;;;;;27.90;18.42;;;;;;;21.03;59.80;99950.75;5114629;28;20240;-73
2022/06/01 05:18:03;;;;;;;37.50;18.10;;;;;;;21.35;59.05;99948.97;5115123;28;20051;-75
2022/06/01 05:20:30;;;;;;;30.00;20.25;;;;;;;21.60;58.57;99947.91;5114533;28;20285;-69
2022/06/01 05:22:57;;;;;;;32.28;21.05;;;;;;;21.71;58.02;99930.97;5114734;28;20071;-69
2022/06/01 05:25:25;;;;;;;32.63;20.83;;;;;;;21.60;58.18;99941.41;5114909;28;20043;-69
2022/06/01 05:27:52;;;;;;;30.33;19.17;;;;;;;21.52;58.71;99943.41;5114686;28;20476;-69
2022/06/01 05:30:19;;;;;;;26.30;17.98;;;;;;;21.49;58.60;99934.88;5114532;28;20501;-68
2022/06/01 05:32:46;;;;;;;26.10;16.25;;;;;;;21.30;59.06;99936.00;5114442;28;20047;-73
2022/06/01 05:35:13;;;;;;;23.73;16.00;;;;;;;21.40;58.97;99925.94;5075552;28;20516;-69
2022/06/01 05:37:40;;;;;;;28.13;17.63;;;;;;;21.41;58.88;99930.41;5093767;28;20138;-69
2022/06/01 05:40:08;;;;;;;24.98;16.58;;;;;;;21.43;58.82;99922.31;5093960;28;20056;-69
2022/06/01 05:42:35;;;;;;;25.40;18.33;;;;;;;21.66;58.53;99929.31;5094073;28;20043;-73
2022/06/01 05:45:03;;;;;;;29.38;18.13;;;;;;;21.95;58.24;99927.44;5093427;28;20460;-69
2022/06/01 05:47:30;;;;;;;28.42;16.52;;;;;;;22.16;57.21;99921.84;5094127;28;20051;-74
2022/06/01 05:49:57;;;;;;;26.80;15.18;;;;;;;22.24;56.98;99920.66;5093195;28;20145;-68
2022/06/01 05:52:23;;;;;;;20.00;14.57;;;;;;;22.41;56.70;99922.69;5093491;28;20044;-71
2022/06/01 05:54:50;;;;;;;23.73;14.57;;;;;;;22.50;56.65;99920.31;5093573;28;20044;-69
2022/06/01 05:57:17;;;;;;;30.98;16.30;;;;;;;22.78;56.06;99926.03;5094503;28;20068;-70
2022/06/01 05:59:44;;;;;;;20.38;14.50;;;;;;;23.10;54.99;99915.47;5093595;28;20059;-72
2022/06/01 06:02:11;;;;;;;21.90;13.90;;;;;;;23.49;53.32;99923.09;5095877;28;20052;-73
2022/06/01 06:04:38;;;;;;;19.00;13.20;;;;;;;24.30;52.03;99915.03;5113811;28;20047;-69
2022/06/01 06:07:05;;;;;;;21.25;14.13;;;;;;;25.99;47.60;99915.13;5095442;28;20050;-69
2022/06/01 06:09:33;;;;;;;22.65;12.77;;;;;;;29.17;40.34;99903.63;5113764;28;20062;-70
2022/06/01 06:12:00;;;;;;;21.08;12.20;;;;;;;32.68;34.12;99905.44;5095220;28;20052;-69
2022/06/01 06:14:27;;;;;;;17.38;11.60;;;;;;;35.20;29.52;99906.59;5114151;28;20047;-70
2022/06/01 06:16:55;;;;;;;19.38;12.15;;;;;;;34.90;29.01;99903.53;5113387;28;20075;-70
2022/06/01 06:19:21;;;;;;;17.50;12.05;;;;;;;32.38;32.09;99903.38;5113685;28;20521;-73
2022/06/01 06:21:48;;;;;;;21.30;12.18;;;;;;;30.81;34.68;99899.22;5095719;28;20183;-69
2022/06/01 06:24:20;;;;;;;20.13;10.85;;;;;;;31.00;33.60;99890.34;5113460;28;20051;-67
2022/06/01 06:26:47;;;;;;;55.33;29.63;;;;;;;29.63;35.77;99897.47;5113240;28;20047;-68
2022/06/01 06:29:17;;;;;;;17.00;10.90;;;;;;;28.15;37.98;99902.38;5113449;28;20054;-66
2022/06/01 06:31:45;;;;;;;14.50;8.93;;;;;;;27.36;39.32;99906.47;5113204;28;20062;-68
2022/06/01 06:34:14;;;;;;;;;;;;;;;26.56;41.01;99901.66;5101477;28;20467;-67
2022/06/01 06:36:44;;;;;;;13.85;5.75;;;;;;;26.28;40.93;99904.94;5092963;28;20397;-67
2022/06/01 06:39:11;;;;;;;10.52;5.50;;;;;;;27.58;37.54;99897.03;5093204;28;20131;-68
2022/06/01 06:41:38;;;;;;;8.82;4.80;;;;;;;28.46;35.45;99892.31;5092856;28;20062;-67
2022/06/01 06:44:05;;;;;;;11.45;5.60;;;;;;;27.94;36.64;99894.28;5075040;28;20093;-67
2022/06/01 06:46:32;;;;;;;10.25;5.18;;;;;;;27.74;36.98;99893.47;5092626;28;20154;-71
2022/06/01 06:49:00;;;;;;;8.30;4.28;;;;;;;27.79;36.83;99888.03;5092559;28;20418;-67
2022/06/01 06:51:34;;;;;;;7.47;3.97;;;;;;;31.34;30.53;99883.81;5092715;28;20044;-69
2022/06/01 06:54:01;;;;;;;7.63;3.90;;;;;;;36.00;24.83;99884.94;5092768;28;20410;-67
2022/06/01 06:56:28;;;;;;;5.30;3.67;;;;;;;39.60;20.67;99890.94;5092600;28;20043;-72
2022/06/01 06:58:56;;;;;;;12.68;4.75;;;;;;;42.27;18.08;99894.72;5092657;28;20055;-67
2022/06/01 07:01:24;;;;;;;8.32;3.95;;;;;;;44.16;16.10;99888.53;5093756;28;20052;-67
2022/06/01 07:03:51;;;;;;;10.20;4.15;;;;;;;45.51;14.71;99879.25;5096881;28;20526;-67
2022/06/01 07:06:25;;;;;;;8.60;4.18;;;;;;;46.55;14.02;99886.31;5096769;28;20055;-67
2022/06/01 07:08:54;;;;;;;8.20;3.58;;;;;;;47.41;13.09;99878.63;5097080;28;20058;-67
2022/06/01 07:11:25;;;;;;;8.25;3.45;;;;;;;48.30;11.89;99876.72;5096673;28;20469;-68
2022/06/01 07:13:53;;;;;;;7.93;3.88;;;;;;;49.25;11.46;99878.03;5115953;28;20070;-72
2022/06/01 07:16:24;;;;;;;25.20;12.57;;;;;;;50.00;10.71;99877.09;5116796;28;20089;-72
2022/06/01 07:18:53;;;;;;;9.60;3.45;;;;;;;49.51;10.33;99873.88;5117106;28;20506;-67
2022/06/01 07:21:21;;;;;;;5.80;3.13;;;;;;;49.55;10.43;99872.09;5117211;28;20055;-72
2022/06/01 07:23:49;;;;;;;6.35;3.50;;;;;;;49.76;10.11;99871.84;5117372;28;20061;-72
2022/06/01 07:26:23;;;;;;;7.03;3.28;;;;;;;50.12;9.67;99872.28;5116587;28;20410;-68
2022/06/01 07:28:50;;;;;;;8.65;3.47;;;;;;;50.46;9.90;99876.25;5116941;28;20048;-73
2022/06/01 07:31:18;;;;;;;7.65;3.40;;;;;;;50.67;9.48;99875.97;5116565;28;20055;-71
2022/06/01 07:33:46;;;;;;;7.38;3.00;;;;;;;51.11;9.28;99868.06;5108666;28;20075;-72
2022/06/01 07:36:16;;;;;;;6.93;3.72;;;;;;;50.98;9.10;99881.06;5096410;28;20503;-68
2022/06/01 07:44:26;;;;;;;16.88;4.13;;;;;;;54.25;7.43;99871.97;5096240;28;20047;-68
2022/06/01 07:46:53;;;;;;;7.05;3.42;;;;;;;54.43;7.03;99861.41;5095719;28;20151;-67
2022/06/01 07:49:40;;;;;;;7.78;3.50;;;;;;;54.51;6.97;99870.97;5096023;28;20139;-67
2022/06/01 07:52:28;;;;;;;6.18;3.08;;;;;;;54.22;6.69;99861.31;5095628;28;20144;-68
2022/06/01 07:54:59;;;;;;;6.80;2.72;;;;;;;54.54;6.51;99857.78;5077498;28;20522;-73
2022/06/01 07:57:26;;;;;;;6.18;3.13;;;;;;;54.60;6.26;99854.47;5095796;28;20086;-68
2022/06/01 07:59:52;;;;;;;9.55;3.47;;;;;;;54.27;6.71;99854.22;5095701;28;20513;-68
2022/06/01 08:02:19;;;;;;;5.18;3.08;;;;;;;53.20;6.73;99856.97;5107783;28;20047;-67
2022/06/01 08:04:49;;;;;;;4.60;2.90;;;;;;;49.74;8.48;99856.84;5123764;22;20466;-72
2022/06/01 08:07:16;;;;;;;7.88;2.67;;;;;;;47.53;9.70;99855.50;5114140;28;20101;-72
2022/06/01 08:09:43;;;;;;;10.23;2.83;;;;;;;45.76;10.06;99848.22;5107952;28;20066;-68
2022/06/01 08:14:55;;;;;;;6.05;2.40;;;;;;;42.56;12.54;99850.09;5075243;28;20048;-68
2022/06/01 08:17:22;;;;;;;6.90;2.53;;;;;;;41.87;13.38;99848.69;5075345;28;20044;-68
2022/06/01 08:19:49;;;;;;;5.53;2.42;;;;;;;40.97;13.66;99842.91;5075687;28;20048;-69
2022/06/01 08:22:16;;;;;;;6.00;2.50;;;;;;;40.74;14.45;99853.03;5075485;28;20048;-68
2022/06/01 08:24:43;;;;;;;14.87;6.17;;;;;;;40.59;14.08;99849.56;5075158;28;20059;-68
2022/06/01 08:27:11;;;;;;;5.75;2.72;;;;;;;40.69;14.80;99850.91;5075083;28;20299;-72
2022/06/01 08:29:38;;;;;;;5.88;2.88;;;;;;;40.88;14.28;99849.03;5074721;28;20098;-71
2022/06/01 08:32:06;;;;;;;3.95;2.40;;;;;;;42.20;13.39;99860.22;5074902;28;20068;-68
2022/06/01 08:34:35;;;;;;;7.18;2.55;;;;;;;43.61;12.13;99848.22;5074691;28;20127;-68
2022/06/01 08:37:03;;;;;;;4.18;2.33;;;;;;;45.49;10.92;99866.47;5074611;28;20051;-74
2022/06/01 08:39:31;;;;;;;6.10;2.05;;;;;;;45.46;10.72;99847.81;5074873;28;20056;-73
2022/06/01 08:42:00;;;;;;;6.63;2.50;;;;;;;46.53;9.89;99863.31;5056975;28;20068;-68
2022/06/01 08:44:33;;;;;;;6.70;2.50;;;;;;;47.38;9.37;99856.19;5075133;28;20056;-80
2022/06/01 08:47:20;;;;;;;12.48;2.63;;;;;;;48.11;8.57;99855.59;5075537;28;20036;-78
2022/06/01 08:49:47;;;;;;;5.88;2.75;;;;;;;50.03;7.72;99855.97;5074908;28;20511;-83
2022/06/01 08:52:14;;;;;;;12.82;3.60;;;;;;;50.76;7.57;99854.56;5074544;28;20062;-79
2022/06/01 08:54:41;;;;;;;6.07;2.10;;;;;;;48.92;8.70;99852.63;5074861;28;20056;-77
2022/06/01 08:57:14;;;;;;;4.28;2.05;;;;;;;44.57;11.00;99842.78;5074495;28;20468;-78
2022/06/01 08:59:47;;;;;;;5.78;2.20;;;;;;;40.79;13.22;99849.31;5074116;28;20127;-79
2022/06/01 09:02:34;;;;;;;6.50;2.00;;;;;;;38.20;15.28;99848.91;5074515;28;20541;-81
2022/06/01 09:05:27;;;;;;;5.13;1.95;;;;;;;36.42;16.67;99849.88;5074311;28;20063;-78
2022/06/01 09:08:01;;;;;;;6.38;1.88;;;;;;;35.21;18.12;99844.53;5060070;28;20594;-73
2022/06/01 09:10:59;;;;;;;4.22;2.38;;;;;;;34.22;18.45;99840.81;5074033;28;20140;-72
2022/06/01 09:13:42;;;;;;;6.97;2.78;;;;;;;33.35;19.80;99842.81;5074239;28;20053;-74
2022/06/01 09:16:43;;;;;;;8.85;5.57;;;;;;;34.12;18.93;99841.34;5074100;28;20047;-73
2022/06/01 09:19:20;;;;;;;14.18;3.15;;;;;;;39.24;14.67;99840.19;5048180;28;20420;-77
2022/06/01 09:24:49;;;;;;;4.55;2.50;;;;;;;43.73;11.79;99846.72;5073147;28;20091;-77
2022/06/01 09:27:17;;;;;;;4.20;2.22;;;;;;;46.70;10.29;99845.22;5073849;28;20045;-72
2022/06/01 09:29:52;;;;;;;7.22;2.33;;;;;;;46.70;9.92;99843.03;5073630;28;20131;-73
2022/06/01 09:32:29;;;;;;;6.07;2.20;;;;;;;44.02;10.97;99837.00;5073534;28;20531;-77
2022/06/01 09:35:05;;;;;;;5.60;1.90;;;;;;;40.52;13.54;99835.53;5091135;28;20503;-72
2022/06/01 09:37:50;;;;;;;5.65;2.40;;;;;;;38.30;15.74;99835.78;5094390;28;20044;-76
2022/06/01 09:40:38;;;;;;;10.25;2.42;;;;;;;36.86;16.59;99829.50;5093883;28;20143;-76
2022/06/01 09:43:05;;;;;;;10.25;2.55;;;;;;;35.53;17.75;99823.41;5093899;28;20051;-73
2022/06/01 09:45:38;;;;;;;6.82;2.53;;;;;;;34.54;19.09;99824.81;5059212;28;20040;-73
2022/06/01 09:48:15;;;;;;;8.60;2.30;;;;;;;33.74;19.89;99832.44;5093925;28;20474;-73
2022/06/01 09:50:45;;;;;;;4.75;2.30;;;;;;;33.25;20.34;99827.56;5093617;28;20052;-69
2022/06/01 09:53:22;;;;;;;4.72;2.17;;;;;;;32.93;20.60;99833.97;5093803;28;20130;-71
2022/06/01 09:55:57;;;;;;;3.80;2.35;;;;;;;31.98;21.45;99845.69;5093632;28;20048;-68
2022/06/01 10:07:05;;;;;;;4.32;2.60;;;;;;;29.46;24.52;99832.78;5092894;28;20400;-69
2022/06/01 10:09:34;;;;;;;7.20;2.33;;;;;;;29.38;25.47;99830.59;5093449;28;20070;-69
2022/06/01 10:12:24;;;;;;;8.10;3.20;;;;;;;29.19;25.18;99835.19;5086768;28;20086;-72
2022/06/01 10:14:54;;;;;;;6.47;2.80;;;;;;;29.13;25.47;99819.81;5073022;28;20059;-69
2022/06/01 10:17:35;;;;;;;6.07;2.50;;;;;;;29.17;25.10;99828.31;5072708;28;20571;-68
2022/06/01 10:20:24;;;;;;;8.90;2.85;;;;;;;28.99;25.39;99825.91;5054981;28;20064;-69
2022/06/01 10:23:08;;;;;;;7.30;3.00;;;;;;;29.16;25.54;99818.13;5072935;28;20085;-70
2022/06/01 10:26:00;;;;;;;5.43;2.78;;;;;;;29.03;26.12;99825.78;5072829;28;20539;-69
2022/06/01 10:28:39;;;;;;;6.20;3.00;;;;;;;28.90;26.56;99828.59;5073152;28;20066;-75
2022/06/01 10:31:31;;;;;;;17.75;4.18;;;;;;;28.76;26.94;99831.84;5040914;28;20063;-74
2022/06/01 10:34:17;;;;;;;9.55;3.05;;;;;;;28.70;27.58;99839.34;5092343;28;20047;-70
2022/06/01 10:36:50;;;;;;;12.43;3.33;;;;;;;28.62;28.12;99825.69;5095004;28;20112;-69
2022/06/01 10:39:25;;;;;;;8.57;3.22;;;;;;;28.61;28.23;99827.72;5113620;28;20066;-73
2022/06/01 10:42:03;;;;;;;7.13;3.08;;;;;;;28.38;28.99;99837.25;5113218;28;20047;-70
2022/06/01 10:45:03;;;;;;;11.15;3.08;;;;;;;28.28;29.11;99834.66;5112962;28;20130;-70
2022/06/01 10:47:42;;;;;;;8.35;2.63;;;;;;;28.24;29.19;99839.66;5113244;28;20040;-72
2022/06/01 10:50:19;;;;;;;9.02;2.65;;;;;;;28.12;29.42;99841.16;5095507;28;20060;-72
2022/06/01 10:52:58;;;;;;;22.33;3.03;;;;;;;27.90;30.26;99848.59;5113439;28;20148;-69
2022/06/01 10:55:34;;;;;;;6.72;2.88;;;;;;;27.87;30.62;99842.94;5112974;28;20048;-68
2022/06/01 10:58:02;;;;;;;8.00;2.80;;;;;;;27.78;31.34;99848.44;5113027;28;20134;-69
2022/06/01 11:00:39;;;;;;;7.85;3.30;;;;;;;27.54;32.15;99864.06;5112914;28;20048;-69
2022/06/01 11:03:26;;;;;;;12.57;2.78;;;;;;;27.34;32.74;99858.31;5092350;28;20051;-72
2022/06/01 11:06:02;;;;;;;5.70;2.97;;;;;;;27.19;33.43;99853.28;5092309;28;20051;-74
2022/06/01 11:08:48;;;;;;;4.55;3.28;;;;;;;27.20;33.63;99857.78;5092888;28;20074;-70
2022/06/01 11:11:49;;;;;;;7.30;4.22;;;;;;;27.20;33.90;99855.69;5092300;28;20418;-68
2022/06/01 11:14:50;;;;;;;6.88;3.22;;;;;;;26.87;34.63;99873.03;5092834;28;20076;-69
2022/06/01 11:17:20;;;;;;;6.18;2.80;;;;;;;26.46;35.02;99864.72;5092758;28;20142;-69
2022/06/01 11:20:25;;;;;;;7.28;3.00;;;;;;;26.17;35.58;99852.16;5092485;28;20059;-68
2022/06/01 11:23:10;;;;;;;6.65;2.10;;;;;;;25.95;36.15;99871.56;5092171;28;20079;-69
2022/06/01 11:26:14;;;;;;;9.13;2.70;;;;;;;25.83;36.10;99872.16;5092439;28;20056;-68
2022/06/01 11:29:16;;;;;;;7.85;2.30;;;;;;;25.62;37.02;99868.75;5092446;28;20047;-68
2022/06/01 11:31:57;;;;;;;4.20;2.33;;;;;;;25.59;37.41;99876.13;5092232;28;20060;-68
2022/06/01 11:34:39;;;;;;;5.13;2.10;;;;;;;25.64;37.70;99869.94;5079092;28;20416;-69
2022/06/01 11:37:18;;;;;;;4.82;1.80;;;;;;;25.73;37.34;99860.88;5071841;28;20048;-68
2022/06/01 11:40:15;;;;;;;16.02;5.13;;;;;;;25.78;37.58;99866.13;5054332;28;20074;-69
2022/06/01 11:42:50;;;;;;;8.75;3.55;;;;;;;25.86;37.54;99857.03;5072122;28;20094;-68
2022/06/01 11:45:31;;;;;;;11.10;2.03;;;;;;;25.52;38.40;99872.53;5054601;28;20504;-67
2022/06/01 11:48:08;;;;;;;4.18;2.03;;;;;;;25.49;39.11;99867.69;5073355;28;20044;-68
2022/06/01 11:51:12;;;;;;;7.22;2.33;;;;;;;25.43;38.90;99870.19;5075295;28;20583;-68
2022/06/01 11:54:02;;;;;;;7.88;1.98;;;;;;;25.17;39.83;99865.97;5075769;28;20141;-68
2022/06/01 11:56:29;;;;;;;;;;;;;;;24.69;40.34;99875.81;5075901;28;20078;-68
2022/06/01 11:59:05;;;;;;;5.93;1.70;;;;;;;24.67;40.82;99875.41;5075598;28;19930;-71
2022/06/01 12:01:46;;;;;;;7.55;1.98;;;;;;;24.67;41.24;99878.25;5075279;28;20052;-68
2022/06/01 12:04:28;;;;;;;3.53;1.60;;;;;;;24.90;41.08;99872.78;5075485;28;20079;-70
2022/06/01 12:07:05;;;;;;;3.67;2.17;;;;;;;25.19;40.71;99876.94;5075049;28;20053;-72
2022/06/01 12:09:48;;;;;;;3.90;1.75;;;;;;;25.43;40.41;99881.56;5087285;28;20135;-71
2022/06/01 12:12:32;;;;;;;7.47;2.03;;;;;;;25.57;40.00;99887.13;5095669;28;20531;-69
2022/06/01 12:15:26;;;;;;;4.32;1.65;;;;;;;25.48;40.57;99898.22;5095588;28;20056;-69